Nicole Leigh Reinauer — WCZ5696 — position and weather

sailwx.info

Track history (hours):
 
Tides and Currents Weather Stations Pressure Air Temp Water Temp Dewpoint Dewpoint Depression Visibility Wind Speed Wind Dir Waves Ship Positions

Nicole Leigh Reinauer

Owner: H A REINAUER INC, STATEN ISLAND, NY. More information available from US FCC via Universal Licensing System and Coast Guard Vessel Documentation Center.

Last reported at 2015-Feb-01 05:17 UTC. Time now 2015-Feb-01 22:49 UTC.
Position N 29°55' W 090°08'.

Length 167 m; draft 7.8 m.

Type: Wing in ground effect craft. MMSI: 366774330.

Date/timePositionNaut miles runAvg speedWind from/ knotsBaromVisibWave heightAir tempDewpointWater temp
2015-Feb-01 05:17N 29°55' W 090°08'  
2015-Jan-29 14:28N 30°07' W 090°55'0 0.0
2015-Jan-29 13:31N 30°07' W 090°55'0 0.0
2015-Jan-29 12:14N 30°07' W 090°55'0 0.0
2015-Jan-29 11:32N 30°07' W 090°55'0 0.0
2015-Jan-29 10:26N 30°07' W 090°55'0 0.0
2015-Jan-29 09:33N 30°07' W 090°55'0 0.0
2015-Jan-29 08:33N 30°07' W 090°55'0 0.0
2015-Jan-29 07:33N 30°07' W 090°55'5 5.0
2015-Jan-29 06:33N 30°03' W 090°51'5 5.5
2015-Jan-29 05:33N 30°01' W 090°45'8 8.1
2015-Jan-29 04:33N 30°03' W 090°36'8 7.4
2015-Jan-29 03:27N 29°60' W 090°27'8 8.1
2015-Jan-29 02:29N 29°56' W 090°19'7 7.0
2015-Jan-29 01:33N 29°56' W 090°11'9 4.3
2015-Jan-28 23:30N 29°57' W 090°01'0 0.0
2015-Jan-28 22:06N 29°57' W 090°01'0 0.0
2015-Jan-28 21:27N 29°57' W 090°01'0 0.0
2015-Jan-28 19:24N 29°57' W 090°01'0 0.0
2015-Jan-28 17:31N 29°57' W 090°01'0 0.0
2015-Jan-28 16:29N 29°57' W 090°01'0 0.0
2015-Jan-28 12:30N 29°57' W 090°01'0 0.0
2015-Jan-28 11:33N 29°57' W 090°01'0 0.0
2015-Jan-28 10:28N 29°57' W 090°01'0 0.0
2015-Jan-28 09:27N 29°57' W 090°01'0 0.0
2015-Jan-28 08:23N 29°57' W 090°01'0 0.0
2015-Jan-28 07:30N 29°57' W 090°01'0 0.0
2015-Jan-28 06:33N 29°57' W 090°01'0 0.0
2015-Jan-28 05:33N 29°57' W 090°01'0 0.0
2015-Jan-28 04:32N 29°57' W 090°01'0 0.0
2015-Jan-28 03:33N 29°57' W 090°01'0 0.0
2015-Jan-28 02:32N 29°57' W 090°01'1 1.1
2015-Jan-28 01:31N 29°56' W 090°00'  
2015-Jan-24 17:33N 25°40' W 080°03'7 6.8
2015-Jan-24 16:33N 25°46' W 080°03'7 7.1
2015-Jan-24 15:33N 25°54' W 080°03'8 8.2
2015-Jan-24 14:33N 26°02' W 080°04'5 5.0
2015-Jan-24 13:33N 26°05' W 080°07'0 0.0
2015-Jan-24 12:29N 26°05' W 080°07'0 0.0
2015-Jan-24 11:32N 26°05' W 080°07'0 0.0
2015-Jan-24 10:32N 26°05' W 080°07'0 0.0
2015-Jan-24 09:32N 26°05' W 080°07'0 0.0
2015-Jan-24 08:32N 26°05' W 080°07'0 0.0
2015-Jan-24 07:32N 26°05' W 080°07'0 0.0
2015-Jan-24 06:32N 26°05' W 080°07'0 0.0
2015-Jan-24 05:32N 26°05' W 080°07'0 0.0
2015-Jan-24 04:32N 26°05' W 080°07'0 0.0
2015-Jan-24 03:26N 26°05' W 080°07'0 0.0
2015-Jan-24 02:30N 26°05' W 080°07'0 0.0
2015-Jan-24 01:33N 26°05' W 080°07'0 0.0
2015-Jan-24 00:33N 26°05' W 080°07'0 0.0
2015-Jan-23 23:33N 26°05' W 080°07'0 0.0
2015-Jan-23 22:33N 26°05' W 080°07'0 0.0
2015-Jan-23 21:33N 26°05' W 080°07'0 0.0
2015-Jan-23 20:33N 26°05' W 080°07'0 0.0
2015-Jan-23 19:33N 26°05' W 080°07'0 0.0
2015-Jan-23 18:33N 26°05' W 080°07'1 1.5
2015-Jan-23 17:33N 26°06' W 080°06'3 3.3
2015-Jan-23 16:33N 26°03' W 080°04'9 9.4
2015-Jan-23 15:33N 25°54' W 080°03'1111.0
2015-Jan-23 14:33N 25°43' W 080°03'3213.1
2015-Jan-23 12:08N 25°11' W 080°08'  
Track history (hours):
 
Tides and Currents Weather Stations Pressure Air Temp Water Temp Dewpoint Dewpoint Depression Visibility Wind Speed Wind Dir Waves Ship Positions

Nicole Leigh Reinauer

Owner: H A REINAUER INC, STATEN ISLAND, NY. More information available from US FCC via Universal Licensing System and Coast Guard Vessel Documentation Center.

Last reported at 2015-Feb-01 05:17 UTC. Time now 2015-Feb-01 22:49 UTC.
Position N 29°55' W 090°08'.

Length 167 m; draft 7.8 m.

Type: Wing in ground effect craft. MMSI: 366774330.

Date/timePositionNaut miles runAvg speedWind from/ knotsBaromVisibWave heightAir tempDewpointWater temp
2015-Feb-01 05:17N 29°55' W 090°08'  
2015-Jan-29 14:28N 30°07' W 090°55'0 0.0
2015-Jan-29 13:31N 30°07' W 090°55'0 0.0
2015-Jan-29 12:14N 30°07' W 090°55'0 0.0
2015-Jan-29 11:32N 30°07' W 090°55'0 0.0
2015-Jan-29 10:26N 30°07' W 090°55'0 0.0
2015-Jan-29 09:33N 30°07' W 090°55'0 0.0
2015-Jan-29 08:33N 30°07' W 090°55'0 0.0
2015-Jan-29 07:33N 30°07' W 090°55'5 5.0
2015-Jan-29 06:33N 30°03' W 090°51'5 5.5
2015-Jan-29 05:33N 30°01' W 090°45'8 8.1
2015-Jan-29 04:33N 30°03' W 090°36'8 7.4
2015-Jan-29 03:27N 29°60' W 090°27'8 8.1
2015-Jan-29 02:29N 29°56' W 090°19'7 7.0
2015-Jan-29 01:33N 29°56' W 090°11'9 4.3
2015-Jan-28 23:30N 29°57' W 090°01'0 0.0
2015-Jan-28 22:06N 29°57' W 090°01'0 0.0
2015-Jan-28 21:27N 29°57' W 090°01'0 0.0
2015-Jan-28 19:24N 29°57' W 090°01'0 0.0
2015-Jan-28 17:31N 29°57' W 090°01'0 0.0
2015-Jan-28 16:29N 29°57' W 090°01'0 0.0
2015-Jan-28 12:30N 29°57' W 090°01'0 0.0
2015-Jan-28 11:33N 29°57' W 090°01'0 0.0
2015-Jan-28 10:28N 29°57' W 090°01'0 0.0
2015-Jan-28 09:27N 29°57' W 090°01'0 0.0
2015-Jan-28 08:23N 29°57' W 090°01'0 0.0
2015-Jan-28 07:30N 29°57' W 090°01'0 0.0
2015-Jan-28 06:33N 29°57' W 090°01'0 0.0
2015-Jan-28 05:33N 29°57' W 090°01'0 0.0
2015-Jan-28 04:32N 29°57' W 090°01'0 0.0
2015-Jan-28 03:33N 29°57' W 090°01'0 0.0
2015-Jan-28 02:32N 29°57' W 090°01'1 1.1
2015-Jan-28 01:31N 29°56' W 090°00'  
2015-Jan-24 17:33N 25°40' W 080°03'7 6.8
2015-Jan-24 16:33N 25°46' W 080°03'7 7.1
2015-Jan-24 15:33N 25°54' W 080°03'8 8.2
2015-Jan-24 14:33N 26°02' W 080°04'5 5.0
2015-Jan-24 13:33N 26°05' W 080°07'0 0.0
2015-Jan-24 12:29N 26°05' W 080°07'0 0.0
2015-Jan-24 11:32N 26°05' W 080°07'0 0.0
2015-Jan-24 10:32N 26°05' W 080°07'0 0.0
2015-Jan-24 09:32N 26°05' W 080°07'0 0.0
2015-Jan-24 08:32N 26°05' W 080°07'0 0.0
2015-Jan-24 07:32N 26°05' W 080°07'0 0.0
2015-Jan-24 06:32N 26°05' W 080°07'0 0.0
2015-Jan-24 05:32N 26°05' W 080°07'0 0.0
2015-Jan-24 04:32N 26°05' W 080°07'0 0.0
2015-Jan-24 03:26N 26°05' W 080°07'0 0.0
2015-Jan-24 02:30N 26°05' W 080°07'0 0.0
2015-Jan-24 01:33N 26°05' W 080°07'0 0.0
2015-Jan-24 00:33N 26°05' W 080°07'0 0.0
2015-Jan-23 23:33N 26°05' W 080°07'0 0.0
2015-Jan-23 22:33N 26°05' W 080°07'0 0.0
2015-Jan-23 21:33N 26°05' W 080°07'0 0.0
2015-Jan-23 20:33N 26°05' W 080°07'0 0.0
2015-Jan-23 19:33N 26°05' W 080°07'0 0.0
2015-Jan-23 18:33N 26°05' W 080°07'1 1.5
2015-Jan-23 17:33N 26°06' W 080°06'3 3.3
2015-Jan-23 16:33N 26°03' W 080°04'9 9.4
2015-Jan-23 15:33N 25°54' W 080°03'1111.0
2015-Jan-23 14:33N 25°43' W 080°03'3213.1
2015-Jan-23 12:08N 25°11' W 080°08'  

Dump ship's entire track history